createdAt,value
2022-08-18T00:02:17.864Z,62.13
2022-08-18T00:04:48.889Z,62.73
2022-08-18T00:07:19.527Z,65.10
2022-08-18T00:09:47.774Z,65.23
2022-08-18T00:12:17.954Z,64.83
2022-08-18T00:14:45.533Z,66.57
2022-08-18T00:17:15.115Z,66.10
2022-08-18T00:19:46.803Z,64.77
2022-08-18T00:22:21.169Z,66.60
2022-08-18T00:24:50.412Z,67.50
2022-08-18T00:27:21.674Z,66.33
2022-08-18T00:29:50.845Z,67.53
2022-08-18T00:32:21.626Z,66.90
2022-08-18T00:34:49.163Z,67.63
2022-08-18T00:37:17.314Z,67.23
2022-08-18T00:39:46.596Z,68.03
2022-08-18T00:42:28.172Z,71.60
2022-08-18T00:45:00.815Z,67.20
2022-08-18T00:47:41.932Z,69.70
2022-08-18T00:50:20.326Z,69.50
2022-08-18T00:52:55.415Z,67.87
2022-08-18T00:55:23.330Z,64.23
2022-08-18T00:57:52.705Z,65.57
2022-08-18T01:00:21.143Z,62.80
2022-08-18T01:02:52.822Z,64.67
2022-08-18T01:05:25.011Z,61.93
2022-08-18T01:07:52.794Z,60.80
2022-08-18T01:10:22.493Z,62.73
2022-08-18T01:12:51.939Z,63.77
2022-08-18T01:15:27.778Z,63.60
2022-08-18T01:18:16.262Z,65.37
2022-08-18T01:21:06.255Z,66.87
2022-08-18T01:23:36.923Z,67.30
2022-08-18T01:26:04.206Z,66.33
2022-08-18T01:28:33.713Z,69.40
2022-08-18T01:31:02.734Z,64.37
2022-08-18T01:33:32.892Z,62.40
2022-08-18T01:36:03.518Z,63.87
2022-08-18T01:38:32.028Z,60.70
2022-08-18T01:41:28.984Z,63.80
2022-08-18T01:43:49.701Z,62.23
2022-08-18T01:46:19.886Z,60.30
2022-08-18T01:48:48.252Z,59.87
2022-08-18T01:51:17.835Z,62.80
2022-08-18T01:53:46.142Z,60.27
2022-08-18T01:56:17.569Z,62.13
2022-08-18T01:58:47.639Z,63.27
2022-08-18T02:01:15.317Z,65.17
2022-08-18T02:04:02.550Z,72.93
2022-08-18T02:06:46.416Z,75.57
2022-08-18T02:09:15.560Z,78.07
2022-08-18T02:11:56.145Z,78.97
2022-08-18T02:14:25.042Z,82.00
2022-08-18T02:17:01.690Z,83.60
2022-08-18T02:19:34.165Z,78.10
2022-08-18T02:22:02.720Z,82.33
2022-08-18T02:24:30.414Z,80.90
2022-08-18T02:26:59.338Z,80.53
2022-08-18T02:29:26.864Z,80.23
2022-08-18T02:31:54.477Z,77.43
2022-08-18T02:34:25.441Z,76.47
2022-08-18T02:36:53.188Z,84.70
2022-08-18T02:39:21.369Z,80.90
2022-08-18T02:41:48.903Z,82.53
2022-08-18T02:44:17.730Z,83.07
2022-08-18T02:46:45.240Z,80.63
2022-08-18T02:49:13.155Z,82.60
2022-08-18T02:51:40.717Z,81.60
2022-08-18T02:54:11.019Z,84.53
2022-08-18T02:56:40.960Z,82.97
2022-08-18T02:59:11.756Z,84.53
2022-08-18T03:01:43.161Z,84.40
2022-08-18T03:04:14.168Z,85.10
2022-08-18T03:06:42.274Z,87.67
2022-08-18T03:09:12.767Z,87.93
2022-08-18T03:11:40.750Z,96.60
2022-08-18T03:14:11.952Z,92.23
2022-08-18T03:16:52.872Z,95.83
2022-08-18T03:19:23.690Z,96.67
2022-08-18T03:21:51.375Z,93.37
2022-08-18T03:24:22.898Z,100.53
2022-08-18T03:26:52.651Z,97.10
2022-08-18T03:29:20.765Z,94.23
2022-08-18T03:31:50.178Z,91.33
2022-08-18T03:34:20.677Z,94.90
2022-08-18T03:36:49.862Z,93.97
2022-08-18T03:39:17.989Z,93.83
2022-08-18T03:41:58.141Z,94.57
2022-08-18T03:44:29.109Z,97.83
2022-08-18T03:46:58.303Z,95.77
2022-08-18T03:49:26.728Z,98.17
2022-08-18T03:51:54.467Z,96.57
2022-08-18T03:54:22.067Z,96.73
2022-08-18T03:56:50.285Z,91.67
2022-08-18T03:59:20.421Z,96.50
2022-08-18T04:01:49.438Z,97.93
2022-08-18T04:04:20.225Z,92.87
2022-08-18T04:06:51.134Z,97.47
2022-08-18T04:09:20.571Z,96.10
2022-08-18T04:11:49.023Z,89.67
2022-08-18T04:14:19.699Z,93.00
2022-08-18T04:16:48.929Z,90.73
2022-08-18T04:19:26.771Z,96.40
2022-08-18T04:21:56.461Z,92.80
2022-08-18T04:24:25.742Z,93.93
2022-08-18T04:26:53.268Z,89.57
2022-08-18T04:29:21.945Z,92.00
2022-08-18T04:31:50.134Z,92.23
2022-08-18T04:34:20.356Z,89.93
2022-08-18T04:36:47.877Z,91.30
2022-08-18T04:39:15.740Z,85.20
2022-08-18T04:41:44.656Z,88.97
2022-08-18T04:44:13.854Z,86.57
2022-08-18T04:46:42.585Z,86.17
2022-08-18T04:49:11.697Z,83.90
2022-08-18T04:52:26.949Z,84.90
2022-08-18T04:54:30.455Z,78.73
2022-08-18T04:56:58.136Z,78.13
2022-08-18T04:59:25.897Z,79.43
2022-08-18T05:01:53.431Z,75.80
2022-08-18T05:04:21.196Z,74.87
2022-08-18T05:06:51.225Z,75.37
2022-08-18T05:09:22.991Z,73.80
2022-08-18T05:11:51.562Z,73.10
2022-08-18T05:14:20.054Z,69.80
2022-08-18T05:16:49.577Z,72.23
2022-08-18T05:19:22.034Z,66.33
2022-08-18T05:21:53.321Z,68.57
2022-08-18T05:24:29.500Z,66.83
2022-08-18T05:27:00.090Z,64.67
2022-08-18T05:29:27.758Z,64.97
2022-08-18T05:32:03.530Z,64.67
2022-08-18T05:34:31.105Z,62.40
2022-08-18T05:37:06.237Z,63.07
2022-08-18T05:39:39.780Z,61.03
2022-08-18T05:42:10.010Z,62.40
2022-08-18T05:44:41.271Z,58.50
2022-08-18T05:47:12.837Z,56.23
2022-08-18T05:49:41.039Z,55.50
2022-08-18T05:52:14.943Z,58.70
2022-08-18T05:55:04.414Z,58.03
2022-08-18T05:57:38.777Z,56.63
2022-08-18T06:00:10.253Z,56.47
2022-08-18T06:02:45.919Z,53.97
2022-08-18T06:05:16.681Z,53.27
2022-08-18T06:07:51.219Z,51.67
2022-08-18T06:10:19.046Z,50.97
2022-08-18T06:12:49.146Z,50.50
2022-08-18T06:15:25.125Z,50.20
2022-08-18T06:18:11.910Z,48.10
2022-08-18T06:20:54.504Z,51.17
2022-08-18T06:23:29.822Z,52.17
2022-08-18T06:26:04.834Z,51.30
2022-08-18T06:28:45.109Z,49.27
2022-08-18T06:31:18.229Z,48.00
2022-08-18T06:33:51.275Z,48.20
2022-08-18T06:36:24.012Z,48.20
2022-08-18T06:39:04.435Z,46.40
2022-08-18T06:41:42.914Z,47.43
2022-08-18T06:44:15.314Z,46.50
2022-08-18T06:46:46.894Z,47.17
2022-08-18T06:49:22.917Z,46.57
2022-08-18T06:51:50.413Z,46.70
2022-08-18T06:54:30.577Z,47.20
2022-08-18T06:56:59.250Z,47.63
2022-08-18T06:59:28.731Z,43.83
2022-08-18T07:02:01.530Z,42.97
2022-08-18T07:04:45.701Z,41.20
2022-08-18T07:07:21.427Z,40.27
2022-08-18T07:09:50.543Z,41.57
2022-08-18T07:12:26.702Z,40.57
2022-08-18T07:15:00.227Z,39.77
2022-08-18T07:17:43.657Z,39.30
2022-08-18T07:20:20.939Z,40.42
2022-08-18T07:22:57.294Z,40.38
2022-08-18T07:25:31.986Z,39.50
2022-08-18T07:28:01.838Z,41.20
2022-08-18T07:30:33.635Z,36.20
2022-08-18T07:33:06.193Z,36.88
2022-08-18T07:35:37.483Z,36.40
2022-08-18T07:38:40.974Z,39.42
2022-08-18T07:41:01.267Z,39.95
2022-08-18T07:43:37.367Z,39.30
2022-08-18T07:46:11.804Z,38.70
2022-08-18T07:48:39.779Z,38.77
2022-08-18T07:51:16.509Z,42.47
2022-08-18T07:53:56.102Z,41.87
2022-08-18T07:56:34.226Z,41.60
2022-08-18T07:59:05.978Z,41.03
2022-08-18T08:04:26.150Z,39.13
2022-08-18T08:07:23.059Z,39.37
2022-08-18T08:09:51.737Z,38.67
2022-08-18T08:12:26.286Z,39.38
2022-08-18T08:15:01.846Z,37.90
2022-08-18T08:17:33.558Z,38.35
2022-08-18T08:20:17.694Z,38.22
2022-08-18T08:22:57.077Z,38.22
2022-08-18T08:25:45.925Z,36.35
2022-08-18T08:28:25.502Z,35.22
2022-08-18T08:31:13.573Z,36.15
2022-08-18T08:33:50.361Z,33.72
2022-08-18T08:36:22.499Z,34.40
2022-08-18T08:38:53.574Z,35.83
2022-08-18T08:41:28.087Z,35.45
2022-08-18T08:44:03.772Z,34.83
2022-08-18T08:46:35.946Z,35.63
2022-08-18T08:49:08.658Z,32.83
2022-08-18T08:51:40.994Z,33.97
2022-08-18T08:54:13.678Z,32.03
2022-08-18T08:56:45.268Z,33.00
2022-08-18T08:59:16.635Z,34.40
2022-08-18T09:01:49.324Z,33.43
2022-08-18T09:04:24.638Z,33.03
2022-08-18T09:07:01.606Z,32.50
2022-08-18T09:09:45.528Z,31.70
2022-08-18T09:12:29.016Z,32.93
2022-08-18T09:15:08.513Z,33.57
2022-08-18T09:17:59.171Z,35.37
2022-08-18T09:20:49.703Z,36.87
2022-08-18T09:23:19.973Z,35.13
2022-08-18T09:25:50.451Z,35.67
2022-08-18T09:28:19.945Z,36.17
2022-08-18T09:30:55.152Z,34.20
2022-08-18T09:33:31.913Z,33.05
2022-08-18T09:36:20.315Z,33.63
2022-08-18T09:39:08.663Z,34.25
2022-08-18T09:41:45.624Z,34.55
2022-08-18T09:44:55.589Z,34.95
2022-08-18T09:48:00.482Z,36.35
2022-08-18T09:51:01.482Z,33.92
2022-08-18T09:53:39.780Z,31.52
2022-08-18T09:56:07.354Z,32.28
2022-08-18T09:59:09.803Z,29.42
2022-08-18T10:01:41.333Z,27.90
2022-08-18T10:04:29.653Z,23.90
2022-08-18T10:09:58.646Z,26.73
2022-08-18T10:12:37.386Z,28.83
2022-08-18T10:15:33.556Z,36.92
2022-08-18T10:18:27.417Z,35.20
2022-08-18T10:21:01.767Z,30.27
2022-08-18T10:23:58.189Z,29.92
2022-08-18T10:27:09.158Z,28.65
2022-08-18T10:29:56.445Z,33.42
2022-08-18T10:32:52.279Z,34.00
2022-08-18T10:35:57.634Z,34.70
2022-08-18T10:38:49.681Z,35.00
2022-08-18T10:41:22.730Z,34.80
2022-08-18T10:43:55.593Z,34.25
2022-08-18T10:46:31.865Z,35.75
2022-08-18T10:49:06.852Z,35.33
2022-08-18T10:51:59.165Z,33.35
2022-08-18T10:54:51.073Z,34.47
2022-08-18T10:57:47.809Z,34.50
2022-08-18T11:00:19.690Z,32.95
2022-08-18T11:03:29.943Z,33.40
2022-08-18T11:05:51.299Z,34.20
2022-08-18T11:08:21.905Z,32.80
2022-08-18T11:11:24.907Z,29.88
2022-08-18T11:13:47.978Z,32.45
2022-08-18T11:16:25.664Z,31.80
2022-08-18T11:18:58.902Z,32.65
2022-08-18T11:21:33.008Z,31.67
2022-08-18T11:24:15.194Z,32.10
2022-08-18T11:26:53.172Z,31.35
2022-08-18T11:29:26.756Z,30.85
2022-08-18T11:32:02.136Z,33.15
2022-08-18T11:34:38.654Z,33.72
2022-08-18T11:37:25.480Z,32.17
2022-08-18T11:39:54.545Z,33.45
2022-08-18T11:42:29.157Z,32.90
2022-08-18T11:45:04.670Z,33.45
2022-08-18T11:47:32.259Z,33.05
2022-08-18T11:50:09.894Z,34.97
2022-08-18T11:52:49.329Z,32.05
2022-08-18T11:55:29.854Z,32.88
2022-08-18T11:58:00.263Z,32.25
2022-08-18T12:00:57.253Z,33.53
2022-08-18T12:03:32.805Z,34.85
2022-08-18T12:06:20.308Z,33.42
2022-08-18T12:08:58.162Z,32.60
2022-08-18T12:11:29.073Z,32.45
2022-08-18T12:16:54.388Z,32.03
2022-08-18T12:19:24.373Z,31.38
2022-08-18T12:21:55.532Z,29.90
2022-08-18T12:27:21.396Z,29.95
2022-08-18T12:29:50.222Z,31.38
2022-08-18T12:32:52.578Z,31.15
2022-08-18T12:35:09.408Z,29.90
2022-08-18T12:40:29.500Z,31.88
2022-08-18T12:42:57.812Z,29.63
2022-08-18T12:45:27.271Z,29.98
2022-08-18T12:47:55.300Z,30.05
2022-08-18T12:53:12.237Z,30.55
2022-08-18T12:58:30.205Z,30.55
2022-08-18T13:00:58.455Z,31.27
2022-08-18T13:06:13.884Z,30.52
2022-08-18T13:08:49.880Z,29.42
2022-08-18T13:11:23.833Z,29.52
2022-08-18T13:13:56.094Z,29.35
2022-08-18T13:16:38.873Z,29.30
2022-08-18T13:19:13.250Z,29.58
2022-08-18T13:21:43.043Z,28.92
2022-08-18T13:24:12.921Z,26.95
2022-08-18T13:26:42.794Z,28.50
2022-08-18T13:29:15.328Z,27.08
2022-08-18T13:31:57.608Z,27.58
2022-08-18T13:34:27.449Z,29.15
2022-08-18T13:36:57.427Z,28.30
2022-08-18T13:39:33.722Z,27.58
2022-08-18T13:42:26.839Z,28.67
2022-08-18T13:44:52.846Z,27.73
2022-08-18T13:47:21.126Z,26.75
2022-08-18T13:49:58.110Z,29.95
2022-08-18T13:52:34.949Z,28.63
2022-08-18T13:55:11.875Z,29.10
2022-08-18T13:57:48.115Z,29.73
2022-08-18T14:00:27.714Z,31.52
2022-08-18T14:03:03.094Z,30.42
2022-08-18T14:05:36.804Z,29.10
2022-08-18T14:08:19.915Z,29.67
2022-08-18T14:10:50.617Z,30.17
2022-08-18T14:13:20.737Z,28.15
2022-08-18T14:15:53.818Z,27.05
2022-08-18T14:18:22.671Z,28.02
2022-08-18T14:21:14.789Z,26.98
2022-08-18T14:24:10.244Z,27.05
2022-08-18T14:26:50.399Z,27.95
2022-08-18T14:29:46.153Z,26.65
2022-08-18T14:32:07.083Z,26.60
2022-08-18T14:34:34.884Z,26.23
2022-08-18T14:37:03.682Z,26.42
2022-08-18T14:39:31.253Z,26.02
2022-08-18T14:42:03.102Z,25.85
2022-08-18T14:44:32.539Z,25.48
2022-08-18T14:47:00.550Z,25.50
2022-08-18T14:49:31.075Z,24.80
2022-08-18T14:51:59.949Z,24.17
2022-08-18T14:54:30.107Z,23.85
2022-08-18T14:57:01.612Z,21.67
2022-08-18T14:59:34.528Z,21.67
2022-08-18T15:02:05.952Z,20.88
2022-08-18T15:04:53.250Z,22.58
2022-08-18T15:07:24.387Z,22.75
2022-08-18T15:09:51.887Z,21.67
2022-08-18T15:12:41.098Z,22.17
2022-08-18T15:15:12.946Z,21.90
2022-08-18T15:17:45.420Z,20.55
2022-08-18T15:20:18.105Z,20.85
2022-08-18T15:23:04.782Z,20.85
2022-08-18T15:25:45.365Z,19.08
2022-08-18T15:28:17.544Z,18.60
2022-08-18T15:30:51.073Z,18.00
2022-08-18T15:33:23.673Z,17.67
2022-08-18T15:35:52.359Z,17.63
2022-08-18T15:38:20.938Z,18.63
2022-08-18T15:40:57.145Z,18.48
2022-08-18T15:43:31.237Z,17.90
2022-08-18T15:45:59.716Z,18.15
2022-08-18T15:48:29.093Z,19.00
2022-08-18T15:50:56.947Z,18.52
2022-08-18T15:53:29.730Z,18.90
2022-08-18T15:55:58.266Z,19.08
2022-08-18T15:58:32.996Z,19.13
2022-08-18T16:01:00.556Z,18.95
2022-08-18T16:03:29.013Z,18.40
2022-08-18T16:05:56.512Z,18.23
2022-08-18T16:08:26.270Z,19.02
2022-08-18T16:10:54.692Z,18.52
2022-08-18T16:13:22.798Z,18.65
2022-08-18T16:15:52.283Z,18.90
2022-08-18T16:18:21.826Z,17.75
2022-08-18T16:20:52.771Z,18.92
2022-08-18T16:23:24.423Z,18.70
2022-08-18T16:25:51.973Z,18.23
2022-08-18T16:28:19.555Z,18.65
2022-08-18T16:30:47.726Z,19.77
2022-08-18T16:33:16.865Z,18.42
2022-08-18T16:35:45.263Z,19.35
2022-08-18T16:38:13.738Z,17.88
2022-08-18T16:40:41.298Z,18.23
2022-08-18T16:43:08.892Z,17.80
2022-08-18T16:45:37.965Z,17.60
2022-08-18T16:48:07.987Z,17.90
2022-08-18T16:50:37.608Z,17.67
2022-08-18T16:53:05.637Z,17.55
2022-08-18T16:55:34.011Z,17.70
2022-08-18T16:58:18.782Z,17.35
2022-08-18T17:01:04.057Z,17.05
2022-08-18T17:03:49.094Z,16.88
2022-08-18T17:06:19.486Z,17.95
2022-08-18T17:08:47.277Z,17.60
2022-08-18T17:11:17.411Z,16.90
2022-08-18T17:13:45.706Z,17.70
2022-08-18T17:16:13.731Z,17.48
2022-08-18T17:18:41.798Z,16.52
2022-08-18T17:21:13.089Z,17.42
2022-08-18T17:23:42.387Z,17.17
2022-08-18T17:26:16.468Z,17.13
2022-08-18T17:28:50.472Z,16.75
2022-08-18T17:31:21.044Z,17.05
2022-08-18T17:33:48.904Z,16.87
2022-08-18T17:36:22.204Z,17.33
2022-08-18T17:38:54.024Z,16.63
2022-08-18T17:41:23.542Z,16.67
2022-08-18T17:43:52.241Z,16.43
2022-08-18T17:46:25.870Z,17.07
2022-08-18T17:48:56.401Z,16.17
2022-08-18T17:51:34.938Z,17.00
2022-08-18T17:54:10.113Z,16.00
2022-08-18T17:56:40.006Z,16.43
2022-08-18T17:59:50.854Z,16.20
2022-08-18T18:02:28.800Z,15.80
2022-08-18T18:04:58.734Z,16.40
2022-08-18T18:07:28.189Z,16.37
2022-08-18T18:10:08.575Z,16.57
2022-08-18T18:12:38.158Z,16.02
2022-08-18T18:15:08.385Z,16.30
2022-08-18T18:17:38.277Z,16.17
2022-08-18T18:20:16.522Z,16.90
2022-08-18T18:22:45.607Z,15.77
2022-08-18T18:25:34.639Z,16.93
2022-08-18T18:28:02.438Z,15.57
2022-08-18T18:30:31.817Z,15.70
2022-08-18T18:33:02.562Z,15.23
2022-08-18T18:35:34.124Z,15.50
2022-08-18T18:38:03.406Z,15.17
2022-08-18T18:40:35.671Z,15.20
2022-08-18T18:43:24.786Z,14.97
2022-08-18T18:46:10.212Z,14.57
2022-08-18T18:48:52.038Z,14.40
2022-08-18T18:51:33.778Z,14.10
2022-08-18T18:54:12.715Z,14.50
2022-08-18T18:56:45.560Z,14.23
2022-08-18T18:59:20.373Z,13.77
2022-08-18T19:01:54.145Z,13.93
2022-08-18T19:04:27.074Z,14.67
2022-08-18T19:06:59.614Z,13.77
2022-08-18T19:09:32.507Z,13.70
2022-08-18T19:12:09.642Z,13.67
2022-08-18T19:14:40.431Z,13.20
2022-08-18T19:17:13.334Z,13.67
2022-08-18T19:19:44.534Z,13.60
2022-08-18T19:22:19.042Z,12.83
2022-08-18T19:24:52.391Z,12.57
2022-08-18T19:27:29.456Z,13.40
2022-08-18T19:30:00.551Z,13.17
2022-08-18T19:32:36.153Z,13.53
2022-08-18T19:35:12.148Z,12.70
2022-08-18T19:38:01.999Z,13.10
2022-08-18T19:40:38.186Z,13.97
2022-08-18T19:43:12.505Z,13.53
2022-08-18T19:45:47.632Z,12.93
2022-08-18T19:48:20.294Z,13.30
2022-08-18T19:50:52.445Z,12.70
2022-08-18T19:53:40.112Z,13.10
2022-08-18T19:56:21.473Z,11.87
2022-08-18T19:59:25.025Z,12.17
2022-08-18T20:02:02.802Z,11.83
2022-08-18T20:04:43.419Z,12.13
2022-08-18T20:07:47.034Z,12.27
2022-08-18T20:10:32.660Z,12.43
2022-08-18T20:13:13.661Z,12.67
2022-08-18T20:16:01.312Z,12.10
2022-08-18T20:18:35.412Z,12.10
2022-08-18T20:21:39.816Z,12.20
2022-08-18T20:24:30.103Z,12.17
2022-08-18T20:27:15.021Z,11.70
2022-08-18T20:29:48.622Z,12.00
2022-08-18T20:32:21.345Z,10.93
2022-08-18T20:34:51.973Z,11.63
2022-08-18T20:37:25.410Z,11.20
2022-08-18T20:39:56.286Z,11.80
2022-08-18T20:42:43.526Z,11.60
2022-08-18T20:45:24.946Z,11.67
2022-08-18T20:48:16.851Z,11.43
2022-08-18T20:50:57.451Z,11.57
2022-08-18T20:53:56.969Z,12.73
2022-08-18T20:56:32.740Z,11.60
2022-08-18T20:59:18.225Z,12.10
2022-08-18T21:01:57.602Z,11.23
2022-08-18T21:04:42.927Z,11.57
2022-08-18T21:07:36.987Z,10.97
2022-08-18T21:10:12.976Z,11.80
2022-08-18T21:12:51.618Z,11.87
2022-08-18T21:15:24.550Z,11.07
2022-08-18T21:18:03.737Z,11.13
2022-08-18T21:20:32.353Z,10.90
2022-08-18T21:23:08.213Z,11.43
2022-08-18T21:25:36.075Z,12.30
2022-08-18T21:28:06.021Z,10.80
2022-08-18T21:30:34.306Z,11.50
2022-08-18T21:33:01.957Z,11.03
2022-08-18T21:35:32.914Z,11.93
2022-08-18T21:38:02.751Z,11.43
2022-08-18T21:40:41.021Z,11.13
2022-08-18T21:43:09.494Z,11.87
2022-08-18T21:45:47.256Z,11.07
2022-08-18T21:48:15.306Z,11.57
2022-08-18T21:50:50.998Z,11.70
2022-08-18T21:53:21.929Z,11.37
2022-08-18T21:55:52.278Z,12.00
2022-08-18T21:58:32.679Z,12.67
2022-08-18T22:01:20.960Z,12.47
2022-08-18T22:03:54.436Z,11.33
2022-08-18T22:06:28.699Z,11.10
2022-08-18T22:09:20.364Z,12.23
2022-08-18T22:12:07.130Z,11.37
2022-08-18T22:14:54.703Z,11.53
2022-08-18T22:17:28.906Z,11.13
2022-08-18T22:19:57.583Z,11.17
2022-08-18T22:22:42.577Z,11.20
2022-08-18T22:25:12.906Z,12.53
2022-08-18T22:27:41.730Z,11.10
2022-08-18T22:30:09.849Z,11.77
2022-08-18T22:32:38.888Z,12.03
2022-08-18T22:35:09.319Z,12.07
2022-08-18T22:37:40.936Z,11.80
2022-08-18T22:40:10.982Z,11.80
2022-08-18T22:42:39.100Z,11.83
2022-08-18T22:45:13.383Z,12.27
2022-08-18T22:47:43.784Z,12.33
2022-08-18T22:50:13.590Z,12.80
2022-08-18T22:52:44.525Z,10.90
2022-08-18T22:55:13.741Z,11.63
2022-08-18T22:57:42.998Z,12.67
2022-08-18T23:00:15.412Z,11.43
2022-08-18T23:02:43.222Z,11.00
2022-08-18T23:05:11.985Z,11.83
2022-08-18T23:07:39.573Z,10.93
2022-08-18T23:10:13.603Z,11.67
2022-08-18T23:12:42.574Z,12.57
2022-08-18T23:15:12.066Z,11.90
2022-08-18T23:17:40.551Z,11.07
2022-08-18T23:20:09.853Z,11.87
2022-08-18T23:22:39.205Z,12.13
2022-08-18T23:25:09.480Z,11.40
2022-08-18T23:27:37.179Z,12.33
2022-08-18T23:30:05.578Z,11.40
2022-08-18T23:32:34.473Z,12.13
2022-08-18T23:35:02.334Z,11.83
2022-08-18T23:37:31.510Z,11.80
2022-08-18T23:39:59.126Z,12.13
2022-08-18T23:42:27.373Z,13.33
2022-08-18T23:45:03.746Z,12.00
2022-08-18T23:47:31.297Z,12.47
2022-08-18T23:50:00.169Z,11.97
2022-08-18T23:52:27.786Z,13.40
2022-08-18T23:54:56.462Z,12.00
2022-08-18T23:57:24.006Z,12.40
2022-08-18T23:59:51.522Z,12.30
